Time;durP1;ratioP1;P1;durP2;ratioP2;P2;SDS_P1;SDS_P2;PMS_P1;PMS_P2;Temp;Humidity;BMP_temperature;BMP_pressure;BME280_temperature;BME280_humidity;BME280_pressure;Samples;Min_cycle;Max_cycle;Signal;HPM_P1;HPM_P2
2022/04/30 00:02:06;;;;;;;47.30;29.93;;;1.60;99.90;0.50;101403;;;;596324;238;24115;-77
2022/04/30 00:04:37;;;;;;;47.47;31.50;;;1.60;99.90;0.50;101400;;;;585369;241;24083;-77
2022/04/30 00:07:08;;;;;;;52.47;31.73;;;1.50;99.90;0.50;101398;;;;586033;241;24045;-78
2022/04/30 00:09:36;;;;;;;47.40;30.40;;;1.60;99.90;0.50;101400;;;;585229;241;24097;-78
2022/04/30 00:12:04;;;;;;;44.83;28.63;;;1.60;99.90;0.50;101406;;;;585984;241;24068;-77
2022/04/30 00:14:29;;;;;;;42.53;29.97;;;1.60;99.90;0.50;101396;;;;585810;241;24114;-78
2022/04/30 00:16:56;;;;;;;47.13;30.73;;;1.50;99.90;0.50;101398;;;;586648;241;24095;-77
2022/04/30 00:19:24;;;;;;;43.47;30.53;;;1.50;99.90;0.40;101396;;;;597160;239;24080;-77
2022/04/30 00:21:53;;;;;;;45.60;30.90;;;1.50;99.90;0.40;101397;;;;587123;240;24069;-79
2022/04/30 00:24:22;;;;;;;43.20;31.07;;;1.50;99.90;0.40;101399;;;;586964;240;24032;-78
2022/04/30 00:26:49;;;;;;;48.23;32.17;;;1.50;99.90;0.40;101403;;;;586766;236;24074;-78
2022/04/30 00:29:17;;;;;;;52.17;34.17;;;1.40;99.90;0.30;101397;;;;587068;240;24076;-78
2022/04/30 00:31:45;;;;;;;46.77;31.67;;;1.40;99.90;0.30;101395;;;;586545;240;24102;-77
2022/04/30 00:34:13;;;;;;;54.87;34.77;;;1.40;99.90;0.30;101394;;;;587177;240;24099;-77
2022/04/30 00:36:41;;;;;;;56.90;34.90;;;1.30;99.90;0.30;101395;;;;586525;240;24051;-77
2022/04/30 00:39:10;;;;;;;57.47;36.47;;;1.30;99.90;0.20;101395;;;;586513;240;24141;-78
2022/04/30 00:41:45;;;;;;;63.13;37.20;;;1.30;99.90;0.20;101390;;;;586423;240;24125;-77
2022/04/30 00:44:09;;;;;;;62.07;36.33;;;1.20;99.90;0.20;101394;;;;586592;240;24098;-77
2022/04/30 00:46:37;;;;;;;63.70;37.50;;;1.20;99.90;0.10;101390;;;;586357;240;24160;-77
2022/04/30 00:49:07;;;;;;;62.67;38.63;;;1.20;99.90;0.20;101395;;;;586351;240;24102;-80
2022/04/30 00:51:34;;;;;;;60.57;38.07;;;1.20;99.90;0.10;101384;;;;586313;240;24096;-79
2022/04/30 00:54:02;;;;;;;61.33;37.87;;;1.20;99.90;0.10;101388;;;;586709;241;24065;-79
2022/04/30 00:56:44;;;;;;;53.03;34.83;;;1.20;99.90;0.10;101382;;;;595775;237;24072;-79
2022/04/30 00:59:12;;;;;;;52.50;35.30;;;1.20;99.90;0.10;101386;;;;586672;241;24132;-79
2022/04/30 01:01:40;;;;;;;55.83;36.80;;;1.20;99.90;0.10;101381;;;;586019;241;24128;-79
2022/04/30 01:04:08;;;;;;;57.43;36.03;;;1.20;99.90;0.10;101386;;;;586123;241;24042;-77
2022/04/30 01:07:00;;;;;;;54.57;37.00;;;1.20;99.90;0.10;101379;;;;586144;241;24097;-80
2022/04/30 01:09:32;;;;;;;58.23;36.80;;;1.20;99.90;0.10;101382;;;;586675;241;24119;-83
2022/04/30 01:11:57;;;;;;;58.70;37.90;;;1.10;99.90;0.10;101383;;;;586757;241;24125;-79
2022/04/30 01:14:32;;;;;;;53.87;36.50;;;1.10;99.90;0.00;101376;;;;595713;238;24064;-80
2022/04/30 01:17:02;;;;;;;55.50;36.93;;;1.10;99.90;0.00;101380;;;;585768;241;24073;-80
2022/04/30 01:19:27;;;;;;;56.03;37.17;;;1.10;99.90;0.00;101376;;;;595784;241;24058;-79
2022/04/30 01:22:01;;;;;;;52.83;36.07;;;1.10;99.90;0.00;101381;;;;595878;241;24083;-77
2022/04/30 01:24:30;;;;;;;51.80;36.67;;;1.00;99.90;0.00;101380;;;;586812;241;24115;-79
2022/04/30 01:27:00;;;;;;;56.23;37.27;;;1.10;99.90;0.10;101380;;;;586710;241;24127;-77
2022/04/30 01:29:25;;;;;;;52.87;36.60;;;1.10;99.90;0.00;101372;;;;586819;240;24158;-80
2022/04/30 01:37:26;;;;;;;56.00;36.37;;;1.00;99.90;0.00;101377;;;;585866;240;24052;-78
2022/04/30 01:40:02;;;;;;;51.30;35.57;;;1.10;99.90;0.00;101381;;;;586955;240;24107;-78
2022/04/30 01:42:29;;;;;;;56.03;36.53;;;1.00;99.90;0.00;101374;;;;587377;240;24114;-78
2022/04/30 01:44:55;;;;;;;53.00;36.07;;;1.10;99.90;0.00;101380;;;;586964;240;24074;-81
2022/04/30 01:47:23;;;;;;;48.87;34.37;;;1.10;99.90;0.00;101370;;;;587352;240;24059;-81
2022/04/30 01:49:54;;;;;;;52.30;34.57;;;1.00;99.90;-0.10;101375;;;;586861;240;24087;-82
2022/04/30 01:52:19;;;;;;;50.80;31.60;;;1.00;99.90;-0.10;101376;;;;595570;237;24116;-78
2022/04/30 01:54:47;;;;;;;44.30;31.87;;;1.00;99.90;0.00;101372;;;;595675;240;24061;-78
2022/04/30 01:57:23;;;;;;;42.47;32.23;;;1.00;99.90;0.00;101378;;;;585966;240;24066;-77
2022/04/30 01:59:43;;;;;;;48.70;34.13;;;1.10;99.90;0.00;101373;;;;596710;240;24062;-79
2022/04/30 02:02:12;;;;;;;50.50;33.93;;;1.10;99.90;0.00;101372;;;;585848;240;24054;-78
2022/04/30 02:04:40;;;;;;;49.87;36.00;;;1.10;99.90;0.00;101372;;;;585751;240;24114;-78
2022/04/30 02:07:07;;;;;;;51.30;35.83;;;1.00;99.90;0.00;101367;;;;585413;241;24071;-78
2022/04/30 02:09:35;;;;;;;48.47;35.13;;;1.10;99.90;0.00;101368;;;;585987;241;24075;-77
2022/04/30 02:12:04;;;;;;;51.40;35.73;;;1.10;99.90;0.00;101363;;;;585965;241;24080;-80
2022/04/30 02:14:31;;;;;;;50.80;34.87;;;1.10;99.90;0.00;101364;;;;586214;241;25149;-80
2022/04/30 02:16:59;;;;;;;49.63;32.50;;;1.10;99.90;0.00;101364;;;;595534;238;24083;-77
2022/04/30 02:19:27;;;;;;;46.73;33.40;;;1.10;99.90;0.00;101362;;;;586145;241;24111;-78
2022/04/30 02:21:58;;;;;;;48.60;33.00;;;1.10;99.90;0.00;101359;;;;585767;241;24097;-80
2022/04/30 02:24:32;;;;;;;45.80;33.93;;;1.10;99.90;0.00;101350;;;;586499;241;24086;-78
2022/04/30 02:26:56;;;;;;;49.63;33.93;;;1.10;99.90;0.00;101359;;;;586354;241;24057;-77
2022/04/30 02:29:24;;;;;;;53.90;34.07;;;1.10;99.90;0.00;101351;;;;595865;241;24102;-78
2022/04/30 02:31:56;;;;;;;54.43;34.13;;;1.10;99.90;0.00;101345;;;;586509;241;24109;-77
2022/04/30 02:34:20;;;;;;;50.63;33.77;;;1.10;99.90;0.00;101345;;;;586926;241;24063;-82
2022/04/30 02:36:48;;;;;;;56.77;37.33;;;1.10;99.90;0.00;101346;;;;586820;241;24065;-82
2022/04/30 02:39:16;;;;;;;56.07;37.63;;;1.00;99.90;0.00;101338;;;;586693;241;24104;-81
2022/04/30 02:41:44;;;;;;;60.13;37.43;;;1.00;99.90;0.00;101337;;;;587585;240;24140;-82
2022/04/30 02:44:12;;;;;;;60.20;36.50;;;1.00;99.90;-0.10;101342;;;;588245;240;24087;-82
2022/04/30 02:46:39;;;;;;;59.73;36.27;;;1.00;99.90;-0.10;101334;;;;597613;237;24064;-81
2022/04/30 02:49:08;;;;;;;52.43;34.00;;;0.90;99.90;-0.10;101324;;;;597418;240;24059;-78
2022/04/30 02:51:35;;;;;;;54.80;34.30;;;0.90;99.90;-0.10;101328;;;;595701;240;24102;-79
2022/04/30 02:54:03;;;;;;;52.03;32.10;;;0.90;99.90;-0.10;101334;;;;595782;240;24065;-77
2022/04/30 02:56:31;;;;;;;45.07;30.47;;;0.90;99.90;-0.10;101327;;;;586442;240;24042;-77
2022/04/30 03:01:45;;;;;;;43.90;27.47;;;1.00;99.90;0.00;101325;;;;586216;240;25084;-80
2022/04/30 03:04:13;;;;;;;43.80;27.83;;;1.00;99.90;0.00;101322;;;;585900;240;24050;-77
2022/04/30 03:06:41;;;;;;;44.60;28.83;;;1.10;99.90;0.00;101316;;;;585799;240;24105;-78
2022/04/30 03:09:09;;;;;;;50.15;33.40;;;1.10;99.90;0.10;101320;;;;580836;240;35147;-78
2022/04/30 03:11:37;;;;;;;34.40;18.37;;;1.20;99.90;0.10;101317;;;;585823;240;24086;-78
2022/04/30 03:14:05;;;;;;;33.33;19.60;;;1.20;99.90;0.10;101327;;;;585968;240;24067;-78
2022/04/30 03:22:06;;;;;;;46.10;31.13;;;1.30;99.90;0.30;101324;;;;595560;237;24122;-78
2022/04/30 03:24:34;;;;;;;49.03;30.10;;;1.30;99.90;0.30;101322;;;;585951;241;24039;-78
2022/04/30 03:27:03;;;;;;;42.10;28.30;;;1.40;99.90;0.40;101317;;;;585980;241;24095;-77
2022/04/30 03:29:29;;;;;;;54.57;30.77;;;1.40;99.90;0.50;101320;;;;585809;241;24069;-78
2022/04/30 03:31:58;;;;;;;48.07;29.47;;;1.50;99.90;0.60;101318;;;;585886;241;24091;-79
2022/04/30 03:34:28;;;;;;;52.90;33.13;;;1.60;99.90;0.70;101323;;;;585819;241;24050;-79
2022/04/30 03:36:53;;;;;;;66.50;40.13;;;1.70;99.90;0.80;101330;;;;585698;241;24084;-78
2022/04/30 03:39:21;;;;;;;53.60;33.87;;;1.80;99.90;0.80;101317;;;;585899;241;24040;-77
2022/04/30 03:41:50;;;;;;;55.97;34.47;;;1.80;99.90;0.80;101330;;;;585944;241;24096;-78
2022/04/30 03:44:18;;;;;;;60.27;36.63;;;1.80;99.90;0.80;101323;;;;585974;241;24098;-75
2022/04/30 03:46:46;;;;;;;63.83;36.87;;;1.80;99.90;0.90;101331;;;;586005;241;24097;-77
2022/04/30 03:49:14;;;;;;;53.47;33.13;;;1.90;99.90;0.90;101330;;;;585914;241;24050;-78
2022/04/30 03:51:42;;;;;;;53.77;32.33;;;1.90;99.90;1.00;101325;;;;585490;241;24080;-78
2022/04/30 03:54:10;;;;;;;55.27;32.73;;;2.00;99.90;1.00;101324;;;;587166;240;24052;-77
2022/04/30 03:56:39;;;;;;;46.67;29.13;;;2.00;99.90;1.10;101335;;;;586679;240;24063;-77
2022/04/30 03:59:08;;;;;;;44.43;27.80;;;2.10;99.90;1.10;101338;;;;586828;240;24099;-78
2022/04/30 04:01:35;;;;;;;44.97;27.80;;;2.10;99.90;1.30;101331;;;;586395;240;24088;-76
2022/04/30 04:04:03;;;;;;;39.23;24.50;;;2.20;99.90;1.40;101334;;;;586523;240;24132;-77
2022/04/30 04:06:31;;;;;;;31.47;17.17;;;2.30;99.90;1.50;101333;;;;586093;240;24106;-77
2022/04/30 04:08:59;;;;;;;30.70;16.37;;;2.40;99.90;1.60;101329;;;;586543;240;24092;-77
2022/04/30 04:11:27;;;;;;;31.03;16.50;;;2.60;99.90;1.80;101339;;;;586399;237;24107;-78
2022/04/30 04:19:30;;;;;;;25.83;16.53;;;3.70;99.90;5.00;101358;;;;586262;240;24091;-78
2022/04/30 04:21:56;;;;;;;32.27;17.67;;;5.70;99.90;6.90;101369;;;;585109;240;24093;-78
2022/04/30 04:27:08;;;;;;;29.70;19.57;;;9.40;99.90;9.90;101382;;;;596688;240;24056;-79
2022/04/30 04:29:36;;;;;;;31.73;20.67;;;10.90;99.90;10.90;101385;;;;585840;241;24061;-76
2022/04/30 04:32:08;;;;;;;28.80;18.77;;;12.10;99.90;12.10;101391;;;;595505;241;24049;-76
2022/04/30 04:34:32;;;;;;;26.73;17.63;;;13.40;99.90;13.40;101401;;;;595121;241;24061;-78
2022/04/30 04:37:00;;;;;;;22.87;17.03;;;14.70;99.90;14.60;101398;;;;585537;241;24128;-78
2022/04/30 04:39:28;;;;;;;19.97;13.93;;;15.80;99.90;15.50;101400;;;;595195;241;24092;-78
2022/04/30 04:41:56;;;;;;;16.37;12.70;;;17.90;99.90;16.70;101386;;;;595485;241;24086;-78
2022/04/30 04:44:25;;;;;;;16.40;12.47;;;18.80;99.90;17.60;101394;;;;585485;241;24062;-78
2022/04/30 04:46:54;;;;;;;15.80;11.17;;;19.50;99.90;18.20;101385;;;;595106;237;24130;-80
2022/04/30 04:49:22;;;;;;;14.73;11.30;;;20.20;99.90;19.00;101384;;;;595298;241;24061;-80
2022/04/30 04:51:50;;;;;;;14.70;11.70;;;20.10;99.90;19.60;101386;;;;595263;237;24108;-79
2022/04/30 04:54:18;;;;;;;14.83;11.07;;;20.80;99.90;20.10;101383;;;;595492;241;24109;-82
2022/04/30 04:56:47;;;;;;;15.80;11.40;;;22.10;93.40;20.90;101380;;;;595548;241;24045;-79
2022/04/30 04:59:15;;;;;;;12.93;10.63;;;22.00;93.30;21.80;101391;;;;595291;237;24044;-80
2022/04/30 05:01:43;;;;;;;9.77;8.00;;;23.00;83.50;22.80;101389;;;;595475;241;24094;-79
2022/04/30 05:04:11;;;;;;;10.03;6.77;;;23.80;71.30;23.30;101390;;;;586046;240;24123;-77
2022/04/30 05:06:39;;;;;;;9.00;8.10;;;24.40;65.80;23.90;101389;;;;586950;240;24079;-78
2022/04/30 05:09:07;;;;;;;8.53;7.73;;;25.70;59.20;24.60;101384;;;;586473;240;23116;-78
2022/04/30 05:11:35;;;;;;;9.60;7.93;;;25.60;59.10;25.10;101387;;;;586437;240;23145;-79
2022/04/30 05:14:06;;;;;;;9.63;8.73;;;26.10;55.50;25.40;101388;;;;586157;240;24124;-78
2022/04/30 05:16:31;;;;;;;7.77;6.87;;;26.50;55.00;26.00;101389;;;;586385;240;23070;-81
2022/04/30 05:18:59;;;;;;;7.00;6.20;;;27.10;53.50;26.60;101384;;;;587009;240;23190;-79
2022/04/30 05:21:27;;;;;;;9.20;6.40;;;27.70;51.80;27.20;101387;;;;587789;240;23058;-80
2022/04/30 05:23:58;;;;;;;5.90;4.93;;;28.20;50.00;27.70;101385;;;;587268;240;23074;-79
2022/04/30 05:26:23;;;;;;;5.17;4.67;;;28.70;48.60;28.10;101383;;;;597450;236;24116;-82
2022/04/30 05:28:51;;;;;;;4.47;4.07;;;29.10;47.70;28.50;101390;;;;586773;240;24118;-80
2022/04/30 05:31:19;;;;;;;4.07;3.28;;;29.60;46.80;29.00;101400;;;;587020;240;23165;-79
2022/04/30 05:33:48;;;;;;;5.55;3.20;;;30.20;44.20;29.00;101393;;;;586802;240;23075;-80
2022/04/30 05:36:16;;;;;;;3.40;3.10;;;30.10;44.10;29.00;101401;;;;586779;240;23187;-78
2022/04/30 05:38:44;;;;;;;2.85;2.65;;;30.10;43.60;29.00;101402;;;;586016;240;23103;-78
2022/04/30 05:41:12;;;;;;;3.65;2.42;;;30.00;43.70;28.90;101400;;;;585903;241;23062;-79
2022/04/30 05:43:41;;;;;;;2.92;2.60;;;30.00;43.90;29.00;101405;;;;585707;241;23099;-80
2022/04/30 05:46:13;;;;;;;3.72;2.17;;;30.50;42.80;29.70;101404;;;;585549;241;23069;-79
2022/04/30 05:48:39;;;;;;;3.10;1.70;;;30.40;42.70;30.10;101413;;;;585596;241;23074;-79
2022/04/30 05:51:06;;;;;;;2.28;2.00;;;30.90;41.70;29.50;101417;;;;585505;241;23087;-79
2022/04/30 05:53:34;;;;;;;2.10;2.00;;;30.80;40.00;28.90;101423;;;;585842;241;24055;-79
2022/04/30 05:56:05;;;;;;;6.70;3.25;;;30.40;40.50;29.10;101432;;;;586025;241;23090;-78
2022/04/30 05:58:32;;;;;;;3.70;2.40;;;30.30;40.00;28.70;101429;;;;586414;241;23117;-80
2022/04/30 06:01:00;;;;;;;7.43;3.00;;;29.90;40.40;28.70;101434;;;;585990;241;23125;-80
2022/04/30 06:03:27;;;;;;;2.53;2.12;;;29.80;40.70;29.10;101444;;;;585434;241;24051;-79
2022/04/30 06:05:55;;;;;;;4.37;2.77;;;30.10;40.10;28.60;101437;;;;585759;241;23076;-80
2022/04/30 06:08:26;;;;;;;3.40;2.63;;;29.90;40.00;28.70;101440;;;;585874;241;23110;-79
2022/04/30 06:10:51;;;;;;;4.93;2.90;;;29.80;40.20;29.20;101445;;;;585384;241;24090;-80
2022/04/30 06:13:22;;;;;;;9.15;3.65;;;30.10;40.90;29.90;101449;;;;585566;241;23076;-79
2022/04/30 06:15:47;;;;;;;7.12;3.90;;;30.60;40.50;29.60;101440;;;;585989;240;24124;-80
2022/04/30 06:18:16;;;;;;;4.25;3.60;;;30.40;39.00;29.40;101442;;;;587059;240;23062;-82
2022/04/30 06:20:47;;;;;;;4.43;3.37;;;30.40;39.00;29.20;101434;;;;586912;240;23102;-82
2022/04/30 06:23:12;;;;;;;4.07;2.92;;;30.30;39.30;29.40;101432;;;;587486;240;23079;-80
2022/04/30 06:25:39;;;;;;;3.20;2.90;;;30.40;39.00;30.20;101439;;;;587216;240;23074;-81
2022/04/30 06:28:09;;;;;;;4.72;3.33;;;30.90;38.80;30.80;101434;;;;586580;240;23147;-79
2022/04/30 06:30:38;;;;;;;5.65;3.03;;;31.50;37.60;31.10;101447;;;;586214;240;24152;-78
2022/04/30 06:33:03;;;;;;;2.87;2.72;;;31.90;37.40;31.60;101437;;;;586285;240;23085;-78
2022/04/30 06:35:32;;;;;;;3.78;3.37;;;32.70;36.70;31.90;101453;;;;586022;240;23106;-80
2022/04/30 06:38:00;;;;;;;5.18;3.70;;;32.60;36.70;32.30;101460;;;;585818;240;23068;-80
2022/04/30 06:40:28;;;;;;;3.70;3.35;;;33.30;35.90;32.50;101459;;;;585967;240;23069;-79
2022/04/30 06:42:56;;;;;;;6.07;3.60;;;34.00;35.00;33.30;101454;;;;585744;240;23076;-78
2022/04/30 06:45:25;;;;;;;3.55;3.20;;;34.70;34.10;34.00;101465;;;;585716;240;23060;-79
2022/04/30 06:47:57;;;;;;;3.75;3.45;;;34.60;34.00;34.00;101457;;;;585838;237;24078;-79
2022/04/30 06:50:24;;;;;;;5.07;3.42;;;35.30;33.40;34.50;101460;;;;594909;240;24118;-79
2022/04/30 06:58:21;;;;;;;3.75;3.45;;;36.80;32.40;36.00;101457;;;;586867;241;23102;-79
2022/04/30 07:03:24;;;;;;;4.32;3.35;;;36.40;31.80;35.30;101460;;;;586134;241;23114;-79
2022/04/30 07:05:55;;;;;;;4.72;3.35;;;36.50;32.10;35.70;101459;;;;586601;241;23095;-80
2022/04/30 07:08:20;;;;;;;5.47;3.70;;;36.50;32.10;36.40;101453;;;;595669;241;23117;-80
2022/04/30 07:10:48;;;;;;;5.03;3.20;;;37.00;32.00;37.60;101445;;;;586210;241;23089;-79
2022/04/30 07:13:16;;;;;;;3.85;3.53;;;38.00;31.00;37.70;101447;;;;586115;241;23050;-79
2022/04/30 07:15:44;;;;;;;4.05;3.33;;;38.50;30.00;37.00;101452;;;;586074;241;23103;-79
2022/04/30 07:18:12;;;;;;;4.20;3.90;;;38.10;30.00;36.20;101450;;;;586424;241;23102;-82
2022/04/30 07:20:42;;;;;;;5.50;3.50;;;37.60;30.10;35.50;101448;;;;587162;241;23019;-80
2022/04/30 07:23:11;;;;;;;3.35;3.10;;;36.90;30.80;35.40;101448;;;;586559;241;23133;-84
2022/04/30 07:25:38;;;;;;;4.20;2.95;;;36.50;30.70;35.60;101450;;;;586352;241;24109;-85
2022/04/30 07:28:06;;;;;;;3.70;3.20;;;36.50;30.60;35.70;101455;;;;587432;240;23057;-84
2022/04/30 07:30:34;;;;;;;3.85;2.87;;;36.60;30.30;35.90;101453;;;;587695;240;23068;-78
2022/04/30 07:33:02;;;;;;;4.85;2.72;;;36.70;30.30;35.20;101450;;;;587351;240;23132;-85
2022/04/30 07:35:30;;;;;;;3.47;2.67;;;36.40;29.90;34.20;101456;;;;587287;240;23064;-85
2022/04/30 07:37:58;;;;;;;2.70;2.50;;;35.60;30.00;33.30;101444;;;;586524;240;23058;-87
2022/04/30 07:40:26;;;;;;;3.30;3.00;;;34.60;30.80;33.00;101429;;;;586411;240;23067;-86
2022/04/30 07:42:57;;;;;;;3.22;2.75;;;34.30;31.00;33.50;101432;;;;586443;240;23062;-80
2022/04/30 07:45:26;;;;;;;8.20;2.35;;;33.90;31.30;32.90;101439;;;;585915;236;24116;-80
2022/04/30 07:47:54;;;;;;;4.87;2.47;;;33.80;31.10;32.70;101439;;;;585865;240;23097;-79
2022/04/30 07:50:21;;;;;;;2.40;2.20;;;33.70;31.00;32.60;101432;;;;585730;240;23086;-79
2022/04/30 07:52:48;;;;;;;2.45;2.20;;;33.60;31.50;32.70;101432;;;;585998;240;23122;-78
2022/04/30 07:55:18;;;;;;;3.55;2.33;;;33.60;31.40;33.30;101432;;;;586118;240;23075;-78
2022/04/30 07:57:46;;;;;;;3.78;2.12;;;34.00;31.30;33.70;101442;;;;585928;240;23085;-79
2022/04/30 08:00:15;;;;;;;2.45;2.25;;;34.50;30.60;34.00;101434;;;;586173;240;23077;-79
2022/04/30 08:02:47;;;;;;;3.20;2.05;;;35.00;30.00;34.20;101429;;;;585945;240;23158;-78
2022/04/30 08:05:11;;;;;;;2.00;1.90;;;35.30;29.50;34.80;101444;;;;586043;241;26285;-79
2022/04/30 08:07:39;;;;;;;1.83;1.73;;;35.60;29.50;34.90;101452;;;;585767;241;23062;-77
2022/04/30 08:10:10;;;;;;;4.03;2.05;;;35.90;29.00;35.40;101446;;;;585770;241;23107;-78
2022/04/30 08:12:35;;;;;;;1.95;1.75;;;36.30;29.20;36.20;101447;;;;594038;241;23093;-77
2022/04/30 08:15:06;;;;;;;4.55;1.83;;;36.80;29.60;35.70;101446;;;;585647;241;24112;-78
2022/04/30 08:17:32;;;;;;;1.95;1.85;;;37.30;28.20;36.30;101445;;;;586029;241;23070;-79
2022/04/30 08:20:03;;;;;;;2.12;1.85;;;37.20;28.10;36.30;101444;;;;586189;241;24105;-77
2022/04/30 08:22:27;;;;;;;1.73;1.62;;;37.40;27.80;36.10;101446;;;;595591;241;23084;-79
2022/04/30 08:24:55;;;;;;;2.60;1.80;;;37.40;27.70;35.50;101437;;;;586755;241;23072;-78
2022/04/30 08:27:23;;;;;;;2.92;2.10;;;37.00;28.10;35.50;101439;;;;586828;241;23058;-76
2022/04/30 08:29:51;;;;;;;2.45;1.77;;;36.90;28.00;35.10;101433;;;;586210;241;23081;-78
2022/04/30 08:32:19;;;;;;;2.28;1.95;;;36.60;28.30;35.50;101433;;;;585533;241;23091;-78
2022/04/30 08:34:47;;;;;;;2.00;1.90;;;36.70;28.40;36.20;101440;;;;586013;241;23071;-77
2022/04/30 08:37:15;;;;;;;2.25;2.10;;;37.20;28.10;36.10;101438;;;;585566;241;23062;-79
2022/04/30 08:39:44;;;;;;;2.08;1.87;;;37.50;27.90;35.50;101436;;;;586430;240;24084;-79
2022/04/30 08:42:12;;;;;;;3.20;2.37;;;37.10;27.60;34.80;101439;;;;586736;240;23077;-79
2022/04/30 08:44:39;;;;;;;3.28;2.00;;;36.50;28.20;34.90;101430;;;;586731;240;23117;-78
2022/04/30 08:47:10;;;;;;;3.05;1.90;;;36.40;28.40;35.30;101437;;;;595999;236;23148;-77
2022/04/30 08:49:34;;;;;;;2.30;2.10;;;36.70;27.90;34.10;101420;;;;586109;240;23065;-76
2022/04/30 08:52:02;;;;;;;2.33;2.22;;;36.00;28.20;34.00;101425;;;;585964;240;23060;-77
2022/04/30 08:54:30;;;;;;;3.85;1.67;;;35.70;28.40;34.60;101427;;;;586103;240;23103;-77
2022/04/30 08:56:58;;;;;;;2.05;1.60;;;36.00;28.10;34.00;101421;;;;595601;240;23048;-76
2022/04/30 08:59:27;;;;;;;5.20;1.87;;;35.70;28.20;33.70;101412;;;;585811;240;24126;-77
2022/04/30 09:01:58;;;;;;;2.15;1.73;;;35.40;28.50;34.60;101402;;;;586040;240;23121;-78
2022/04/30 09:04:22;;;;;;;1.48;1.37;;;35.90;28.30;35.30;101412;;;;586019;240;23187;-77
2022/04/30 09:06:50;;;;;;;2.00;1.85;;;36.50;28.10;35.00;101399;;;;586202;240;23057;-78
2022/04/30 09:09:28;;;;;;;1.80;1.70;;;36.50;28.30;35.10;101415;;;;585558;240;23063;-78
2022/04/30 09:11:56;;;;;;;2.65;1.83;;;36.70;27.80;34.60;101400;;;;586251;240;23106;-77
2022/04/30 09:14:29;;;;;;;3.08;1.80;;;36.70;28.30;35.30;101393;;;;586063;240;23079;-78
2022/04/30 09:17:09;;;;;;;2.53;2.33;;;36.70;28.30;36.40;101404;;;;585539;241;23062;-80
2022/04/30 09:19:49;;;;;;;3.30;1.90;;;37.70;27.70;35.50;101401;;;;595148;241;24105;-79
2022/04/30 09:22:16;;;;;;;2.42;1.70;;;37.60;27.20;34.90;101389;;;;585986;241;23068;-79
2022/04/30 09:24:44;;;;;;;1.60;1.50;;;37.00;27.10;34.70;101391;;;;586336;241;23174;-78
2022/04/30 09:27:12;;;;;;;2.08;1.98;;;36.60;27.90;35.20;101380;;;;585624;241;23063;-80
2022/04/30 09:29:40;;;;;;;1.95;1.83;;;36.90;27.40;35.80;101388;;;;585762;236;24150;-80
2022/04/30 09:32:08;;;;;;;2.60;2.50;;;37.50;27.40;36.70;101387;;;;585926;241;23054;-79
2022/04/30 09:40:14;;;;;;;1.77;1.60;;;38.00;26.90;35.50;101399;;;;586446;241;23084;-79
2022/04/30 09:42:45;;;;;;;1.42;1.30;;;37.60;27.00;35.70;101381;;;;585507;241;23075;-81
2022/04/30 09:45:10;;;;;;;1.37;1.37;;;37.60;27.30;36.60;101400;;;;595094;241;23099;-81
2022/04/30 09:47:38;;;;;;;2.87;1.80;;;38.30;26.30;36.00;101396;;;;584185;241;23059;-78
2022/04/30 09:55:41;;;;;;;1.80;1.70;;;37.30;26.50;34.70;101401;;;;587365;240;23132;-78
2022/04/30 09:58:06;;;;;;;2.35;2.08;;;36.90;26.80;34.70;101393;;;;586850;240;23082;-79
2022/04/30 10:00:33;;;;;;;2.97;1.60;;;36.90;27.40;35.50;101390;;;;586455;240;23088;-78
2022/04/30 10:03:01;;;;;;;2.15;1.70;;;37.40;26.70;35.50;101387;;;;586918;240;23076;-78
2022/04/30 10:05:32;;;;;;;5.50;2.17;;;37.70;26.60;35.60;101377;;;;586997;240;23084;-78
2022/04/30 10:08:00;;;;;;;8.38;1.85;;;37.80;26.50;34.30;101377;;;;586626;240;23084;-78
2022/04/30 10:10:47;;;;;;;2.28;1.83;;;36.20;27.20;33.60;101381;;;;586862;240;24083;-77
2022/04/30 10:13:26;;;;;;;4.28;3.92;;;36.10;27.20;33.20;101379;;;;580827;240;23107;-77
2022/04/30 10:15:56;;;;;;;1.90;1.80;;;35.50;27.60;33.80;101374;;;;585597;240;23107;-76
2022/04/30 10:18:24;;;;;;;3.62;1.62;;;35.80;28.00;34.20;101371;;;;586745;240;23070;-77
2022/04/30 10:21:00;;;;;;;4.05;1.83;;;36.10;28.10;34.50;101373;;;;584977;240;24153;-77
2022/04/30 10:23:21;;;;;;;2.20;2.00;;;36.30;27.50;33.50;101375;;;;586151;240;23097;-76
2022/04/30 10:25:49;;;;;;;2.97;2.00;;;35.80;27.30;32.90;101372;;;;585900;240;24132;-77
2022/04/30 10:28:17;;;;;;;2.03;1.87;;;35.30;27.70;32.60;101361;;;;585764;241;23066;-77
2022/04/30 10:30:45;;;;;;;1.85;1.75;;;34.80;28.20;32.30;101348;;;;585619;241;23099;-76
2022/04/30 10:33:13;;;;;;;2.05;1.50;;;34.30;28.90;32.20;101350;;;;586236;241;23098;-76
2022/04/30 10:35:44;;;;;;;1.48;1.35;;;34.00;29.00;31.70;101356;;;;585562;241;23071;-76
2022/04/30 10:38:18;;;;;;;1.35;1.30;;;32.40;28.70;30.20;101348;;;;585784;241;23071;-75
2022/04/30 10:40:49;;;;;;;1.60;1.50;;;32.40;28.70;28.80;101341;;;;586065;241;23077;-77
2022/04/30 10:43:20;;;;;;;2.28;1.45;;;30.70;29.70;27.20;101343;;;;586055;241;23094;-75
2022/04/30 10:45:48;;;;;;;1.60;1.50;;;26.90;32.30;24.90;101329;;;;586012;241;23067;-76
2022/04/30 10:48:19;;;;;;;1.53;1.43;;;26.80;32.20;23.40;101333;;;;585602;241;24062;-74
2022/04/30 10:50:45;;;;;;;4.07;1.30;;;25.00;33.90;22.20;101312;;;;585893;241;24053;-74
2022/04/30 10:53:12;;;;;;;1.50;1.40;;;23.60;35.30;20.80;101316;;;;585663;241;24054;-76
2022/04/30 10:55:43;;;;;;;1.20;1.10;;;22.20;37.30;19.70;101307;;;;585695;241;23067;-78
2022/04/30 10:58:08;;;;;;;1.20;1.10;;;20.90;38.80;18.90;101301;;;;585990;241;23105;-78
2022/04/30 11:00:36;;;;;;;1.50;0.80;;;19.90;40.00;18.20;101296;;;;585615;241;24066;-78
2022/04/30 11:03:10;;;;;;;1.47;1.00;;;19.10;40.60;17.60;101295;;;;586791;240;24045;-78
2022/04/30 11:05:37;;;;;;;1.50;1.00;;;18.40;41.50;17.20;101285;;;;596408;240;24060;-78
2022/04/30 11:08:05;;;;;;;2.67;1.00;;;17.90;42.60;17.00;101296;;;;586522;240;24084;-76
2022/04/30 11:10:33;;;;;;;1.40;0.90;;;17.70;44.50;16.70;101295;;;;586386;240;25103;-75
2022/04/30 11:13:07;;;;;;;1.07;1.07;;;17.30;45.40;16.20;101286;;;;586305;240;24046;-76
2022/04/30 11:15:34;;;;;;;2.63;1.20;;;17.00;45.40;16.10;101280;;;;586679;240;24056;-76
2022/04/30 11:18:02;;;;;;;1.20;1.20;;;16.70;46.00;16.20;101277;;;;586120;240;24057;-75
2022/04/30 11:20:30;;;;;;;1.10;0.80;;;16.70;46.50;16.40;101279;;;;586160;240;24089;-78
2022/04/30 11:22:58;;;;;;;5.00;1.10;;;16.90;46.40;16.60;101275;;;;585911;240;24097;-75
2022/04/30 11:25:38;;;;;;;0.90;0.90;;;17.10;45.20;16.70;101270;;;;586765;240;24054;-76
2022/04/30 11:28:09;;;;;;;0.97;0.97;;;17.30;45.90;17.00;101275;;;;586856;240;24102;-76
2022/04/30 11:30:47;;;;;;;1.30;1.23;;;17.80;47.20;17.30;101272;;;;586772;240;24057;-76
2022/04/30 11:33:12;;;;;;;1.90;1.43;;;18.00;46.80;17.50;101267;;;;595596;240;24080;-75
2022/04/30 11:35:40;;;;;;;1.40;1.30;;;18.00;46.30;17.60;101272;;;;586328;240;24074;-75
2022/04/30 11:38:11;;;;;;;0.90;0.90;;;18.20;44.30;17.30;101262;;;;585790;241;24080;-79
2022/04/30 11:40:43;;;;;;;1.00;0.80;;;17.70;42.30;17.00;101256;;;;596520;241;24076;-78
2022/04/30 11:43:11;;;;;;;1.60;1.20;;;17.70;42.20;16.70;101253;;;;580621;241;35034;-76
2022/04/30 11:45:38;;;;;;;0.90;0.90;;;17.40;43.20;16.40;101249;;;;585807;241;24082;-77
2022/04/30 11:48:06;;;;;;;0.90;0.90;;;17.10;44.30;16.40;101251;;;;585749;241;24098;-78
2022/04/30 11:50:35;;;;;;;1.20;0.70;;;16.90;44.30;16.20;101247;;;;596342;241;24073;-77
2022/04/30 11:53:03;;;;;;;1.83;0.70;;;16.90;44.30;16.10;101247;;;;586323;241;24083;-76
2022/04/30 11:55:31;;;;;;;2.70;0.87;;;16.80;45.00;15.90;101241;;;;586017;241;24034;-76
2022/04/30 11:57:59;;;;;;;2.40;1.10;;;16.60;45.40;15.60;101232;;;;586194;241;24053;-76